Time;durP1;ratioP1;P1;durP2;ratioP2;P2;SDS_P1;SDS_P2;PMS_P1;PMS_P2;Temp;Humidity;BMP_temperature;BMP_pressure;BME280_temperature;BME280_humidity;BME280_pressure;Samples;Min_cycle;Max_cycle;Signal;HPM_P1;HPM_P2
2023/03/17 00:01:49;;;;;;;;;;;;;;;;;;6175944;23;19923;-85
2023/03/17 00:04:15;;;;;;;;;;;;;;;;;;6202564;23;20304;-85
2023/03/17 00:06:41;;;;;;;;;;;;;;;;;;6201011;23;19946;-85
2023/03/17 00:09:07;;;;;;;;;;;;;;;;;;6203642;23;19922;-85
2023/03/17 00:11:33;;;;;;;;;;;;;;;;;;6202288;23;19924;-85
2023/03/17 00:14:00;;;;;;;;;;;;;;;;;;6174976;23;19924;-85
2023/03/17 00:16:27;;;;;;;;;;;;;;;;;;6177443;23;19920;-85
2023/03/17 00:18:53;;;;;;;;;;;;;;;;;;6200220;23;19927;-85
2023/03/17 00:21:19;;;;;;;;;;;;;;;;;;6200307;23;19916;-85
2023/03/17 00:23:45;;;;;;;;;;;;;;;;;;6201205;23;19970;-86
2023/03/17 00:26:11;;;;;;;;;;;;;;;;;;6175520;23;19927;-85
2023/03/17 00:28:38;;;;;;;;;;;;;;;;;;6174600;23;19920;-84
2023/03/17 00:31:04;;;;;;;;;;;;;;;;;;6177653;23;20422;-85
2023/03/17 00:33:31;;;;;;;;;;;;;;;;;;6178366;23;19963;-85
2023/03/17 00:35:58;;;;;;;;;;;;;;;;;;6175408;23;19930;-85
2023/03/17 00:38:24;;;;;;;;;;;;;;;;;;6178579;23;19920;-85
2023/03/17 00:40:50;;;;;;;;;;;;;;;;;;6200512;23;19919;-85
2023/03/17 00:43:16;;;;;;;;;;;;;;;;;;6202174;23;20035;-85
2023/03/17 00:45:42;;;;;;;;;;;;;;;;;;6173919;23;19924;-85
2023/03/17 00:48:08;;;;;;;;;;;;;;;;;;6177468;23;20340;-85
2023/03/17 00:50:33;;;;;;;;;;;;;;;;;;6179206;23;19921;-85
2023/03/17 00:53:00;;;;;;;;;;;;;;;;;;6171308;23;19927;-85
2023/03/17 00:55:26;;;;;;;;;;;;;;;;;;6200810;23;19920;-86
2023/03/17 00:57:52;;;;;;;;;;;;;;;;;;6200950;23;19995;-85
2023/03/17 01:00:18;;;;;;;;;;;;;;;;;;6203040;23;20345;-85
2023/03/17 01:02:44;;;;;;;;;;;;;;;;;;6199460;23;19920;-85
2023/03/17 01:05:10;;;;;;;;;;;;;;;;;;6202648;23;19915;-86
2023/03/17 01:07:37;;;;;;;;;;;;;;;;;;6200594;23;19974;-85
2023/03/17 01:10:02;;;;;;;;;;;;;;;;;;6201437;23;19927;-85
2023/03/17 01:12:28;;;;;;;;;;;;;;;;;;6176583;23;19994;-85
2023/03/17 01:14:55;;;;;;;;;;;;;;;;;;6199657;23;19927;-85
2023/03/17 01:17:21;;;;;;;;;;;;;;;;;;6202971;23;20222;-86
2023/03/17 01:19:48;;;;;;;;;;;;;;;;;;6173195;23;19945;-86
2023/03/17 01:22:14;;;;;;;;;;;;;;;;;;6200625;23;20252;-86
2023/03/17 01:24:40;;;;;;;;;;;;;;;;;;6197959;23;20183;-85
2023/03/17 01:27:05;;;;;;;;;;;;;;;;;;6200622;23;19916;-85
2023/03/17 01:29:32;;;;;;;;;;;;;;;;;;6178418;23;19943;-86
2023/03/17 01:31:58;;;;;;;;;;;;;;;;;;6174294;23;20251;-84
2023/03/17 01:34:24;;;;;;;;;;;;;;;;;;6200876;23;19934;-85
2023/03/17 01:36:50;;;;;;;;;;;;;;;;;;6198200;23;19987;-85
2023/03/17 01:39:16;;;;;;;;;;;;;;;;;;6174634;23;19923;-85
2023/03/17 01:41:42;;;;;;;;;;;;;;;;;;6197472;23;19916;-85
2023/03/17 01:44:09;;;;;;;;;;;;;;;;;;6173688;23;19920;-85
2023/03/17 01:46:35;;;;;;;;;;;;;;;;;;6173972;23;19990;-87
2023/03/17 01:49:03;;;;;;;;;;;;;;;;;;6175078;23;19946;-85
2023/03/17 01:51:30;;;;;;;;;;;;;;;;;;6200055;23;19920;-85
2023/03/17 01:53:57;;;;;;;;;;;;;;;;;;6174921;23;20251;-85
2023/03/17 01:56:23;;;;;;;;;;;;;;;;;;6198154;23;20257;-85
2023/03/17 01:58:50;;;;;;;;;;;;;;;;;;6196698;23;19926;-85
2023/03/17 02:01:16;;;;;;;;;;;;;;;;;;6199227;23;19983;-85
2023/03/17 02:03:42;;;;;;;;;;;;;;;;;;6200547;23;19920;-85
2023/03/17 02:06:08;;;;;;;;;;;;;;;;;;6198334;23;19970;-85
2023/03/17 02:08:34;;;;;;;;;;;;;;;;;;6173657;23;20297;-85
2023/03/17 02:11:02;;;;;;;;;;;;;;;;;;6199681;23;19947;-85
2023/03/17 02:13:28;;;;;;;;;;;;;;;;;;6199285;23;19923;-86
2023/03/17 02:15:55;;;;;;;;;;;;;;;;;;6197265;23;20494;-84
2023/03/17 02:18:22;;;;;;;;;;;;;;;;;;6201753;23;19977;-86
2023/03/17 02:20:48;;;;;;;;;;;;;;;;;;6200160;23;19920;-85
2023/03/17 02:23:14;;;;;;;;;;;;;;;;;;6176073;23;19930;-86
2023/03/17 02:25:40;;;;;;;;;;;;;;;;;;6197813;23;20278;-85
2023/03/17 02:28:07;;;;;;;;;;;;;;;;;;6203906;23;19945;-85
2023/03/17 02:30:33;;;;;;;;;;;;;;;;;;6202461;23;20256;-85
2023/03/17 02:32:59;;;;;;;;;;;;;;;;;;6199687;23;19920;-86
2023/03/17 02:35:25;;;;;;;;;;;;;;;;;;6175456;23;20225;-85
2023/03/17 02:37:51;;;;;;;;;;;;;;;;;;6174487;23;19919;-86
2023/03/17 02:40:17;;;;;;;;;;;;;;;;;;6177331;23;19962;-85
2023/03/17 02:42:43;;;;;;;;;;;;;;;;;;6175773;23;19916;-85
2023/03/17 02:45:10;;;;;;;;;;;;;;;;;;6175045;23;19916;-85
2023/03/17 02:47:36;;;;;;;;;;;;;;;;;;6200464;23;20411;-85
2023/03/17 02:50:03;;;;;;;;;;;;;;;;;;6203647;23;19920;-85
2023/03/17 02:52:29;;;;;;;;;;;;;;;;;;6203586;23;20360;-85
2023/03/17 02:54:55;;;;;;;;;;;;;;;;;;6175084;23;19920;-85
2023/03/17 02:57:21;;;;;;;;;;;;;;;;;;6177524;23;20429;-85
2023/03/17 02:59:47;;;;;;;;;;;;;;;;;;6199677;23;20620;-85
2023/03/17 03:02:13;;;;;;;;;;;;;;;;;;6200937;23;19924;-85
2023/03/17 03:04:39;;;;;;;;;;;;;;;;;;6197995;23;19916;-86
2023/03/17 03:07:05;;;;;;;;;;;;;;;;;;6199279;23;19920;-85
2023/03/17 03:09:31;;;;;;;;;;;;;;;;;;6200229;23;20245;-86
2023/03/17 03:11:57;;;;;;;;;;;;;;;;;;6202316;23;20467;-85
2023/03/17 03:14:22;;;;;;;;;;;;;;;;;;6177567;23;20406;-85
2023/03/17 03:16:48;;;;;;;;;;;;;;;;;;6200519;23;19923;-85
2023/03/17 03:19:15;;;;;;;;;;;;;;;;;;6202299;23;19919;-85
2023/03/17 03:21:41;;;;;;;;;;;;;;;;;;6175919;23;19924;-85
2023/03/17 03:24:08;;;;;;;;;;;;;;;;;;6202752;23;20394;-85
2023/03/17 03:26:33;;;;;;;;;;;;;;;;;;6201464;23;20359;-85
2023/03/17 03:29:00;;;;;;;;;;;;;;;;;;6200097;23;20243;-85
2023/03/17 03:31:26;;;;;;;;;;;;;;;;;;6199701;23;19920;-85
2023/03/17 03:33:52;;;;;;;;;;;;;;;;;;6198945;23;20389;-86
2023/03/17 03:36:18;;;;;;;;;;;;;;;;;;6176492;23;20241;-85
2023/03/17 03:38:44;;;;;;;;;;;;;;;;;;6200084;23;19986;-86
2023/03/17 03:41:10;;;;;;;;;;;;;;;;;;6205805;23;19915;-85
2023/03/17 03:43:36;;;;;;;;;;;;;;;;;;6206014;23;19932;-85
2023/03/17 03:46:02;;;;;;;;;;;;;;;;;;6178005;23;19920;-85
2023/03/17 03:48:28;;;;;;;;;;;;;;;;;;6204662;23;20018;-85
2023/03/17 03:50:54;;;;;;;;;;;;;;;;;;6200724;23;19916;-85
2023/03/17 03:53:20;;;;;;;;;;;;;;;;;;6204382;23;19967;-85
2023/03/17 03:55:46;;;;;;;;;;;;;;;;;;6200836;23;19916;-85
2023/03/17 03:58:12;;;;;;;;;;;;;;;;;;6177243;23;20317;-85
2023/03/17 04:00:38;;;;;;;;;;;;;;;;;;6202268;23;20355;-86
2023/03/17 04:03:04;;;;;;;;;;;;;;;;;;6204074;23;19919;-85
2023/03/17 04:05:30;;;;;;;;;;;;;;;;;;6202073;23;19919;-85
2023/03/17 04:07:55;;;;;;;;;;;;;;;;;;6176242;23;19922;-85
2023/03/17 04:10:22;;;;;;;;;;;;;;;;;;6202675;23;20293;-85
2023/03/17 04:12:48;;;;;;;;;;;;;;;;;;6175359;23;20391;-85
2023/03/17 04:15:14;;;;;;;;;;;;;;;;;;6177845;23;19974;-86
2023/03/17 04:17:40;;;;;;;;;;;;;;;;;;6173837;23;20247;-85
2023/03/17 04:20:06;;;;;;;;;;;;;;;;;;6204102;23;19928;-85
2023/03/17 04:22:32;;;;;;;;;;;;;;;;;;6204393;23;19916;-85
2023/03/17 04:24:58;;;;;;;;;;;;;;;;;;6202687;23;20026;-85
2023/03/17 04:27:24;;;;;;;;;;;;;;;;;;6204095;23;19920;-85
2023/03/17 04:29:50;;;;;;;;;;;;;;;;;;6200841;23;19946;-85
2023/03/17 04:32:16;;;;;;;;;;;;;;;;;;6206862;23;20431;-85
2023/03/17 04:34:41;;;;;;;;;;;;;;;;;;6176964;23;19978;-86
2023/03/17 04:37:07;;;;;;;;;;;;;;;;;;6203160;23;19991;-85
2023/03/17 04:39:33;;;;;;;;;;;;;;;;;;6177167;23;19931;-85
2023/03/17 04:42:00;;;;;;;;;;;;;;;;;;6199931;23;19930;-86
2023/03/17 04:44:26;;;;;;;;;;;;;;;;;;6177582;23;20237;-85
2023/03/17 04:46:52;;;;;;;;;;;;;;;;;;6200274;23;19924;-85
2023/03/17 04:49:18;;;;;;;;;;;;;;;;;;6178752;23;19939;-86
2023/03/17 04:51:43;;;;;;;;;;;;;;;;;;6174119;23;19920;-85
2023/03/17 04:54:10;;;;;;;;;;;;;;;;;;6203560;23;19971;-85
2023/03/17 04:56:36;;;;;;;;;;;;;;;;;;6175876;23;19958;-85
2023/03/17 04:59:02;;;;;;;;;;;;;;;;;;6175815;23;20019;-86
2023/03/17 05:01:28;;;;;;;;;;;;;;;;;;6199388;23;20379;-85
2023/03/17 05:03:54;;;;;;;;;;;;;;;;;;6202135;23;19919;-85
2023/03/17 05:06:20;;;;;;;;;;;;;;;;;;6199208;23;19969;-86
2023/03/17 05:08:46;;;;;;;;;;;;;;;;;;6199989;23;19920;-85
2023/03/17 05:11:12;;;;;;;;;;;;;;;;;;6199927;23;19994;-86
2023/03/17 05:13:39;;;;;;;;;;;;;;;;;;6173917;23;19923;-86
2023/03/17 05:16:06;;;;;;;;;;;;;;;;;;6202213;23;19924;-86
2023/03/17 05:18:32;;;;;;;;;;;;;;;;;;6203513;23;19915;-85
2023/03/17 05:20:58;;;;;;;;;;;;;;;;;;6200760;23;19915;-86
2023/03/17 05:23:24;;;;;;;;;;;;;;;;;;6203016;23;19919;-85
2023/03/17 05:25:51;;;;;;;;;;;;;;;;;;6199926;23;19923;-86
2023/03/17 05:28:18;;;;;;;;;;;;;;;;;;6204171;23;19950;-85
2023/03/17 05:30:44;;;;;;;;;;;;;;;;;;6174924;23;19995;-85
2023/03/17 05:33:10;;;;;;;;;;;;;;;;;;6206336;23;19944;-85
2023/03/17 05:35:36;;;;;;;;;;;;;;;;;;6173985;23;19942;-85
2023/03/17 05:38:02;;;;;;;;;;;;;;;;;;6177561;23;19966;-85
2023/03/17 05:40:29;;;;;;;;;;;;;;;;;;6201973;23;19973;-85
2023/03/17 05:42:55;;;;;;;;;;;;;;;;;;6174225;23;19919;-86
2023/03/17 05:45:21;;;;;;;;;;;;;;;;;;6200388;23;19930;-86
2023/03/17 05:47:47;;;;;;;;;;;;;;;;;;6199813;23;19998;-85
2023/03/17 05:50:13;;;;;;;;;;;;;;;;;;6200647;23;19916;-85
2023/03/17 05:52:39;;;;;;;;;;;;;;;;;;6199138;23;19920;-85
2023/03/17 05:55:06;;;;;;;;;;;;;;;;;;6201516;23;20394;-85
2023/03/17 05:57:32;;;;;;;;;;;;;;;;;;6199902;23;19955;-85
2023/03/17 05:59:58;;;;;;;;;;;;;;;;;;6201213;23;19916;-85
2023/03/17 06:02:24;;;;;;;;;;;;;;;;;;6200707;23;19923;-85
2023/03/17 06:04:51;;;;;;;;;;;;;;;;;;6201274;23;20341;-84
2023/03/17 06:07:16;;;;;;;;;;;;;;;;;;6177368;23;19920;-84
2023/03/17 06:09:42;;;;;;;;;;;;;;;;;;6173200;23;20252;-85
2023/03/17 06:12:08;;;;;;;;;;;;;;;;;;6175683;23;19931;-85
2023/03/17 06:14:35;;;;;;;;;;;;;;;;;;6199721;23;20019;-85
2023/03/17 06:17:01;;;;;;;;;;;;;;;;;;6200802;23;19970;-85
2023/03/17 06:19:27;;;;;;;;;;;;;;;;;;6174671;23;20018;-85
2023/03/17 06:21:53;;;;;;;;;;;;;;;;;;6196536;23;20318;-85
2023/03/17 06:24:19;;;;;;;;;;;;;;;;;;6200453;23;19935;-85
2023/03/17 06:26:45;;;;;;;;;;;;;;;;;;6170836;23;19947;-85
2023/03/17 06:29:11;;;;;;;;;;;;;;;;;;6173917;23;19920;-85
2023/03/17 06:31:37;;;;;;;;;;;;;;;;;;6199772;23;19927;-86
2023/03/17 06:34:03;;;;;;;;;;;;;;;;;;6201645;23;20383;-85
2023/03/17 06:36:29;;;;;;;;;;;;;;;;;;6199691;23;19943;-85
2023/03/17 06:38:55;;;;;;;;;;;;;;;;;;6172231;23;19916;-85
2023/03/17 06:41:21;;;;;;;;;;;;;;;;;;6200770;23;20345;-85
2023/03/17 06:43:47;;;;;;;;;;;;;;;;;;6169187;23;19982;-85
2023/03/17 06:46:13;;;;;;;;;;;;;;;;;;6198938;23;20068;-85
2023/03/17 06:48:39;;;;;;;;;;;;;;;;;;6171103;23;19919;-85
2023/03/17 06:51:05;;;;;;;;;;;;;;;;;;6174259;23;19920;-85
2023/03/17 06:53:31;;;;;;;;;;;;;;;;;;6176955;23;20381;-85
2023/03/17 06:55:57;;;;;;;;;;;;;;;;;;6198188;23;20197;-86
2023/03/17 06:58:23;;;;;;;;;;;;;;;;;;6202027;23;19927;-85
2023/03/17 07:00:52;;;;;;;;;;;;;;;;;;6198611;23;19920;-85
2023/03/17 07:03:19;;;;;;;;;;;;;;;;;;6202697;23;19917;-85
2023/03/17 07:05:45;;;;;;;;;;;;;;;;;;6198298;23;19939;-86
2023/03/17 07:08:11;;;;;;;;;;;;;;;;;;6199749;23;20292;-85
2023/03/17 07:10:37;;;;;;;;;;;;;;;;;;6197214;23;19930;-85
2023/03/17 07:13:05;;;;;;;;;;;;;;;;;;6201409;23;20304;-85
2023/03/17 07:15:33;;;;;;;;;;;;;;;;;;6201035;23;19955;-84
2023/03/17 07:17:59;;;;;;;;;;;;;;;;;;6199283;23;19927;-86
2023/03/17 07:20:25;;;;;;;;;;;;;;;;;;6176082;23;19939;-85
2023/03/17 07:22:51;;;;;;;;;;;;;;;;;;6169018;23;19923;-86
2023/03/17 07:25:18;;;;;;;;;;;;;;;;;;6194576;23;19923;-86
2023/03/17 07:27:44;;;;;;;;;;;;;;;;;;6193170;23;19927;-86
2023/03/17 07:30:11;;;;;;;;;;;;;;;;;;6169095;23;19920;-86
2023/03/17 07:32:38;;;;;;;;;;;;;;;;;;6169981;23;19916;-86
2023/03/17 07:35:04;;;;;;;;;;;;;;;;;;6195801;23;19924;-85
2023/03/17 07:37:30;;;;;;;;;;;;;;;;;;6199741;23;20360;-85
2023/03/17 07:39:56;;;;;;;;;;;;;;;;;;6171555;23;20047;-85
2023/03/17 07:42:22;;;;;;;;;;;;;;;;;;6197764;23;19924;-85
2023/03/17 07:44:47;;;;;;;;;;;;;;;;;;6170276;23;19978;-85
2023/03/17 07:47:13;;;;;;;;;;;;;;;;;;6198694;23;19923;-85
2023/03/17 07:49:40;;;;;;;;;;;;;;;;;;6199852;23;19923;-85
2023/03/17 07:52:07;;;;;;;;;;;;;;;;;;6199955;23;19920;-85
2023/03/17 07:54:33;;;;;;;;;;;;;;;;;;6202212;23;19963;-85
2023/03/17 07:56:59;;;;;;;;;;;;;;;;;;6198817;23;19942;-85
2023/03/17 07:59:25;;;;;;;;;;;;;;;;;;6203680;23;19965;-85
2023/03/17 08:01:51;;;;;;;;;;;;;;;;;;6175888;23;20003;-85
2023/03/17 08:04:17;;;;;;;;;;;;;;;;;;6178751;23;20344;-85
2023/03/17 08:06:45;;;;;;;;;;;;;;;;;;6198997;23;19927;-85
2023/03/17 08:09:11;;;;;;;;;;;;;;;;;;6179024;23;19987;-85
2023/03/17 08:11:37;;;;;;;;;;;;;;;;;;6173175;23;19990;-86
2023/03/17 08:14:03;;;;;;;;;;;;;;;;;;6201573;23;19986;-85
2023/03/17 08:16:29;;;;;;;;;;;;;;;;;;6200944;23;19920;-85
2023/03/17 08:18:57;;;;;;;;;;;;;;;;;;6201659;23;20274;-85
2023/03/17 08:21:23;;;;;;;;;;;;;;;;;;6201648;23;19935;-85
2023/03/17 08:23:49;;;;;;;;;;;;;;;;;;6176041;23;19923;-85
2023/03/17 08:26:15;;;;;;;;;;;;;;;;;;6203775;23;20273;-85
2023/03/17 08:28:41;;;;;;;;;;;;;;;;;;6203201;23;19927;-85
2023/03/17 08:31:07;;;;;;;;;;;;;;;;;;6176202;23;19920;-85
2023/03/17 08:33:33;;;;;;;;;;;;;;;;;;6179420;23;19923;-85
2023/03/17 08:35:59;;;;;;;;;;;;;;;;;;6201026;23;19935;-85
2023/03/17 08:38:25;;;;;;;;;;;;;;;;;;6202678;23;19942;-86
2023/03/17 08:40:51;;;;;;;;;;;;;;;;;;6201033;23;20345;-85
2023/03/17 08:43:17;;;;;;;;;;;;;;;;;;6178199;23;20415;-85
2023/03/17 08:45:43;;;;;;;;;;;;;;;;;;6176423;23;19923;-85
2023/03/17 08:48:09;;;;;;;;;;;;;;;;;;6179967;23;19915;-85
2023/03/17 08:50:36;;;;;;;;;;;;;;;;;;6202966;23;19920;-85
2023/03/17 08:53:03;;;;;;;;;;;;;;;;;;6177830;23;20288;-85
2023/03/17 08:55:29;;;;;;;;;;;;;;;;;;6177858;23;19920;-85
2023/03/17 08:57:54;;;;;;;;;;;;;;;;;;6171788;23;19923;-85
2023/03/17 09:00:21;;;;;;;;;;;;;;;;;;6177664;23;19926;-85
2023/03/17 09:02:47;;;;;;;;;;;;;;;;;;6200303;23;19924;-85
2023/03/17 09:05:13;;;;;;;;;;;;;;;;;;6177269;23;19920;-85
2023/03/17 09:07:39;;;;;;;;;;;;;;;;;;6200737;23;19916;-85
2023/03/17 09:10:05;;;;;;;;;;;;;;;;;;6200621;23;19999;-85
2023/03/17 09:12:31;;;;;;;;;;;;;;;;;;6200225;23;19970;-85
2023/03/17 09:14:58;;;;;;;;;;;;;;;;;;6174442;23;20292;-85
2023/03/17 09:17:24;;;;;;;;;;;;;;;;;;6174387;23;19927;-85
2023/03/17 09:19:50;;;;;;;;;;;;;;;;;;6198636;23;19915;-85
2023/03/17 09:22:17;;;;;;;;;;;;;;;;;;6178428;23;19990;-85
2023/03/17 09:24:43;;;;;;;;;;;;;;;;;;6201169;23;19920;-85
2023/03/17 09:27:09;;;;;;;;;;;;;;;;;;6203452;23;19927;-85
2023/03/17 09:29:35;;;;;;;;;;;;;;;;;;6178598;23;19920;-85
2023/03/17 09:32:01;;;;;;;;;;;;;;;;;;6176185;23;19924;-84
2023/03/17 09:34:27;;;;;;;;;;;;;;;;;;6202799;23;20004;-85
2023/03/17 09:36:53;;;;;;;;;;;;;;;;;;6175328;23;19987;-85
2023/03/17 09:39:21;;;;;;;;;;;;;;;;;;6176700;23;20249;-85
2023/03/17 09:41:47;;;;;;;;;;;;;;;;;;6199912;23;19916;-85
2023/03/17 09:44:13;;;;;;;;;;;;;;;;;;6179436;23;19920;-84
2023/03/17 09:46:39;;;;;;;;;;;;;;;;;;6176628;23;19926;-85
2023/03/17 09:49:06;;;;;;;;;;;;;;;;;;6202417;23;19920;-85
2023/03/17 09:51:32;;;;;;;;;;;;;;;;;;6204122;23;19987;-85
2023/03/17 09:54:01;;;;;;;;;;;;;;;;;;6200021;23;19961;-84
2023/03/17 09:56:27;;;;;;;;;;;;;;;;;;6202746;23;20288;-84
2023/03/17 09:58:53;;;;;;;;;;;;;;;;;;6199812;23;19986;-85
2023/03/17 10:01:20;;;;;;;;;;;;;;;;;;6179461;23;19959;-85
2023/03/17 10:03:46;;;;;;;;;;;;;;;;;;6199731;23;19923;-85
2023/03/17 10:06:12;;;;;;;;;;;;;;;;;;6201595;23;19920;-84
2023/03/17 10:08:38;;;;;;;;;;;;;;;;;;6174259;23;19920;-84
2023/03/17 10:11:04;;;;;;;;;;;;;;;;;;6203078;23;20333;-85
2023/03/17 10:13:30;;;;;;;;;;;;;;;;;;6202808;23;20373;-84
2023/03/17 10:15:56;;;;;;;;;;;;;;;;;;6200322;23;19990;-85
2023/03/17 10:18:21;;;;;;;;;;;;;;;;;;6202048;23;20256;-85
2023/03/17 10:20:47;;;;;;;;;;;;;;;;;;6199124;23;19920;-85
2023/03/17 10:23:13;;;;;;;;;;;;;;;;;;6201511;23;20442;-85
2023/03/17 10:25:40;;;;;;;;;;;;;;;;;;6199296;23;19994;-85
2023/03/17 10:28:10;;;;;;;;;;;;;;;;;;6172597;23;20304;-85
2023/03/17 10:30:37;;;;;;;;;;;;;;;;;;6204640;23;19985;-85
2023/03/17 10:33:05;;;;;;;;;;;;;;;;;;6202737;23;20321;-85
2023/03/17 10:35:34;;;;;;;;;;;;;;;;;;6203433;23;19927;-85
2023/03/17 10:38:00;;;;;;;;;;;;;;;;;;6201418;23;20101;-84
2023/03/17 10:40:27;;;;;;;;;;;;;;;;;;6200902;23;19955;-84
2023/03/17 10:42:53;;;;;;;;;;;;;;;;;;6199250;23;19919;-85
2023/03/17 10:45:20;;;;;;;;;;;;;;;;;;6202259;23;19923;-85
2023/03/17 10:47:46;;;;;;;;;;;;;;;;;;6198474;23;19995;-85
2023/03/17 10:50:12;;;;;;;;;;;;;;;;;;6201545;23;19951;-85
2023/03/17 10:52:39;;;;;;;;;;;;;;;;;;6175432;23;19927;-85
2023/03/17 10:55:05;;;;;;;;;;;;;;;;;;6203254;23;20035;-85
2023/03/17 10:57:31;;;;;;;;;;;;;;;;;;6177574;23;20412;-84
2023/03/17 10:59:57;;;;;;;;;;;;;;;;;;6203211;23;20173;-85
2023/03/17 11:02:23;;;;;;;;;;;;;;;;;;6204641;23;19924;-85
2023/03/17 11:04:49;;;;;;;;;;;;;;;;;;6203305;23;19916;-85
2023/03/17 11:07:15;;;;;;;;;;;;;;;;;;6206348;23;19946;-85
2023/03/17 11:09:41;;;;;;;;;;;;;;;;;;6199457;23;20367;-85
2023/03/17 11:12:07;;;;;;;;;;;;;;;;;;6204138;23;19920;-84
2023/03/17 11:14:34;;;;;;;;;;;;;;;;;;6203439;23;19920;-85
2023/03/17 11:17:00;;;;;;;;;;;;;;;;;;6178002;23;19927;-85
2023/03/17 11:19:26;;;;;;;;;;;;;;;;;;6202650;23;19923;-85
2023/03/17 11:21:53;;;;;;;;;;;;;;;;;;6201983;23;19924;-85
2023/03/17 11:24:19;;;;;;;;;;;;;;;;;;6205986;23;20189;-85
2023/03/17 11:26:45;;;;;;;;;;;;;;;;;;6202720;23;19920;-84
2023/03/17 11:29:11;;;;;;;;;;;;;;;;;;6205678;22;20353;-85
2023/03/17 11:31:37;;;;;;;;;;;;;;;;;;6176194;23;19923;-84
2023/03/17 11:34:04;;;;;;;;;;;;;;;;;;6181255;23;19990;-85
2023/03/17 11:36:30;;;;;;;;;;;;;;;;;;6205544;23;20325;-85
2023/03/17 11:38:55;;;;;;;;;;;;;;;;;;6202369;23;19919;-86
2023/03/17 11:41:21;;;;;;;;;;;;;;;;;;6207267;23;19927;-85
2023/03/17 11:43:48;;;;;;;;;;;;;;;;;;6204322;23;19919;-85
2023/03/17 11:46:14;;;;;;;;;;;;;;;;;;6205150;23;19916;-85
2023/03/17 11:48:39;;;;;;;;;;;;;;;;;;6204829;23;20218;-84
2023/03/17 11:51:05;;;;;;;;;;;;;;;;;;6208523;23;20244;-84
2023/03/17 11:53:31;;;;;;;;;;;;;;;;;;6207507;23;19928;-85
2023/03/17 11:55:57;;;;;;;;;;;;;;;;;;6205564;23;19927;-85
2023/03/17 11:58:23;;;;;;;;;;;;;;;;;;6205908;23;19927;-85
2023/03/17 12:00:49;;;;;;;;;;;;;;;;;;6176702;23;19966;-85
2023/03/17 12:03:16;;;;;;;;;;;;;;;;;;6205632;23;19915;-85
2023/03/17 12:05:43;;;;;;;;;;;;;;;;;;6203690;23;19920;-84
2023/03/17 12:08:10;;;;;;;;;;;;;;;;;;6205816;23;20359;-85
2023/03/17 12:10:39;;;;;;;;;;;;;;;;;;6202624;23;19942;-85
2023/03/17 12:13:05;;;;;;;;;;;;;;;;;;6178164;23;19995;-84
2023/03/17 12:15:32;;;;;;;;;;;;;;;;;;6203490;23;20347;-84
2023/03/17 12:17:57;;;;;;;;;;;;;;;;;;6203593;23;19920;-84
2023/03/17 12:20:23;;;;;;;;;;;;;;;;;;6205304;23;19926;-85
2023/03/17 12:22:49;;;;;;;;;;;;;;;;;;6203489;23;19920;-85
2023/03/17 12:25:16;;;;;;;;;;;;;;;;;;6207406;23;20218;-85
2023/03/17 12:27:42;;;;;;;;;;;;;;;;;;6205635;23;19924;-85
2023/03/17 12:30:08;;;;;;;;;;;;;;;;;;6208487;23;19939;-85
2023/03/17 12:32:34;;;;;;;;;;;;;;;;;;6207651;23;20030;-84
2023/03/17 12:35:00;;;;;;;;;;;;;;;;;;6179857;23;19920;-85
2023/03/17 12:37:27;;;;;;;;;;;;;;;;;;6208435;23;19916;-85
2023/03/17 12:39:54;;;;;;;;;;;;;;;;;;6206253;23;19923;-85
2023/03/17 12:42:20;;;;;;;;;;;;;;;;;;6205547;23;20333;-85
2023/03/17 12:51:15;;;;;;;;;;;;;;;;;;;;;
2023/03/17 12:54:28;;;;;;;;;;;;;;;;;;;;;
2023/03/17 13:09:40;;;;;;;;;;;;;;;;;;6051858;23;19928;-86
2023/03/17 13:15:29;;;;;;;;;;;;;;;;;;6001949;23;19932;-85
2023/03/17 13:21:08;;;;;;;;;;;;;;;;;;5932972;24;19919;-85
2023/03/17 13:29:43;;;;;;;;;;;;;;;;;;;;;
2023/03/17 13:32:12;;;;;;;;;;;;;;;;;;5889278;24;19935;-85
2023/03/17 13:34:44;;;;;;;;;;;;;;;;;;5888433;24;19967;-86
2023/03/17 13:37:21;;;;;;;;;;;;;;;;;;5833982;24;19962;-85
2023/03/17 13:40:16;;;;;;;;;;;;;;;;;;5850287;24;19923;-86
2023/03/17 13:42:42;;;;;;;;;;;;;;;;;;5931480;23;19929;-86
2023/03/17 13:45:40;;;;;;;;;;;;;;;;;;6000938;23;19927;-86
2023/03/17 13:48:37;;;;;;;;;;;;;;;;;;5999524;23;19922;-86
2023/03/17 14:28:19;;;;;;;;;;;;;;;;;;6159404;22;20309;-86
2023/03/17 14:31:23;;;;;;;;;;;;;;;;;;6119438;23;19979;-86
2023/03/17 14:34:14;;;;;;;;;;;;;;;;;;6133250;22;20002;-86
2023/03/17 14:37:05;;;;;;;;;;;;;;;;;;6172643;23;19947;-86
2023/03/17 14:42:42;;;;;;;;;;;;;;;;;;6135492;23;19916;-87
2023/03/17 14:48:24;;;;;;;;;;;;;;;;;;6087223;23;20318;-86
2023/03/17 14:51:21;;;;;;;;;;;;;;;;;;;;;
2023/03/17 14:59:58;;;;;;;;;;;;;;;;;;6126854;22;20291;-86
2023/03/17 15:02:24;;;;;;;;;;;;;;;;;;6207792;23;19923;-85
2023/03/17 15:04:50;;;;;;;;;;;;;;;;;;6231609;23;19954;-85
2023/03/17 15:07:16;;;;;;;;;;;;;;;;;;6209345;23;20348;-85
2023/03/17 15:09:42;;;;;;;;;;;;;;;;;;6207338;23;19919;-85
2023/03/17 15:12:08;;;;;;;;;;;;;;;;;;6183757;23;19916;-86
2023/03/17 15:14:34;;;;;;;;;;;;;;;;;;6186004;23;20018;-85
2023/03/17 15:17:00;;;;;;;;;;;;;;;;;;6184718;23;19942;-85
2023/03/17 15:19:26;;;;;;;;;;;;;;;;;;6210990;23;19916;-86
2023/03/17 15:21:52;;;;;;;;;;;;;;;;;;6208202;23;20358;-86
2023/03/17 15:24:19;;;;;;;;;;;;;;;;;;6211865;23;19920;-86
2023/03/17 15:26:45;;;;;;;;;;;;;;;;;;6210359;23;19927;-85
2023/03/17 15:29:11;;;;;;;;;;;;;;;;;;6207733;23;20337;-85
2023/03/17 15:31:37;;;;;;;;;;;;;;;;;;6151536;23;19931;-86
2023/03/17 15:34:03;;;;;;;;;;;;;;;;;;6154641;23;19923;-85
2023/03/17 15:36:29;;;;;;;;;;;;;;;;;;6149605;23;19920;-86
2023/03/17 15:38:55;;;;;;;;;;;;;;;;;;6200245;23;20144;-86
2023/03/17 15:41:21;;;;;;;;;;;;;;;;;;6151042;23;19923;-85
2023/03/17 15:43:47;;;;;;;;;;;;;;;;;;6175385;23;19971;-86
2023/03/17 15:46:13;;;;;;;;;;;;;;;;;;6180370;23;19919;-85
2023/03/17 15:48:39;;;;;;;;;;;;;;;;;;6178753;23;19920;-86
2023/03/17 15:51:05;;;;;;;;;;;;;;;;;;6182086;23;19991;-85
2023/03/17 15:53:31;;;;;;;;;;;;;;;;;;6154625;23;19919;-86
2023/03/17 15:55:57;;;;;;;;;;;;;;;;;;6151903;23;20282;-86
2023/03/17 15:58:23;;;;;;;;;;;;;;;;;;6176848;23;20253;-86
2023/03/17 16:00:49;;;;;;;;;;;;;;;;;;6176602;23;19923;-86
2023/03/17 16:03:15;;;;;;;;;;;;;;;;;;6204242;23;19978;-86
2023/03/17 16:05:42;;;;;;;;;;;;;;;;;;6204827;23;19919;-86
2023/03/17 16:08:08;;;;;;;;;;;;;;;;;;6209159;23;19919;-86
2023/03/17 16:10:34;;;;;;;;;;;;;;;;;;6207895;23;19966;-86
2023/03/17 16:13:00;;;;;;;;;;;;;;;;;;6180430;23;19920;-86
2023/03/17 16:15:26;;;;;;;;;;;;;;;;;;6183831;23;19930;-86
2023/03/17 16:17:52;;;;;;;;;;;;;;;;;;6206008;23;20035;-86
2023/03/17 16:20:19;;;;;;;;;;;;;;;;;;6210531;23;20097;-86
2023/03/17 16:22:45;;;;;;;;;;;;;;;;;;6205424;23;19950;-86
2023/03/17 16:25:11;;;;;;;;;;;;;;;;;;6181514;23;19920;-85
2023/03/17 16:27:37;;;;;;;;;;;;;;;;;;6206699;23;19928;-86
2023/03/17 16:30:03;;;;;;;;;;;;;;;;;;6207676;23;19947;-86
2023/03/17 16:32:29;;;;;;;;;;;;;;;;;;6183593;23;19946;-86
2023/03/17 16:34:55;;;;;;;;;;;;;;;;;;6206139;23;19930;-86
2023/03/17 16:37:21;;;;;;;;;;;;;;;;;;6209275;23;19929;-86
2023/03/17 16:39:50;;;;;;;;;;;;;;;;;;6207187;23;19956;-86
2023/03/17 16:42:16;;;;;;;;;;;;;;;;;;6180553;23;19920;-86
2023/03/17 16:44:42;;;;;;;;;;;;;;;;;;6206154;23;19965;-86
2023/03/17 16:47:08;;;;;;;;;;;;;;;;;;6187643;23;20353;-86
2023/03/17 16:49:34;;;;;;;;;;;;;;;;;;6186206;23;20378;-85
2023/03/17 16:52:00;;;;;;;;;;;;;;;;;;6182429;23;20294;-86
2023/03/17 16:54:30;;;;;;;;;;;;;;;;;;6185354;23;19923;-86
2023/03/17 16:56:56;;;;;;;;;;;;;;;;;;6207483;23;19920;-86
2023/03/17 16:59:23;;;;;;;;;;;;;;;;;;6182972;23;19969;-86
2023/03/17 17:01:49;;;;;;;;;;;;;;;;;;6208687;23;19920;-86
2023/03/17 17:04:15;;;;;;;;;;;;;;;;;;6181934;23;19916;-86
2023/03/17 17:06:41;;;;;;;;;;;;;;;;;;6182246;23;19919;-86
2023/03/17 17:09:07;;;;;;;;;;;;;;;;;;6208716;23;19994;-86
2023/03/17 17:11:33;;;;;;;;;;;;;;;;;;6207585;23;19930;-86
2023/03/17 17:13:59;;;;;;;;;;;;;;;;;;6181672;23;19923;-86
2023/03/17 17:16:25;;;;;;;;;;;;;;;;;;6206204;23;19920;-86
2023/03/17 17:18:51;;;;;;;;;;;;;;;;;;6205713;23;19994;-86
2023/03/17 17:21:17;;;;;;;;;;;;;;;;;;6205359;23;20318;-86
2023/03/17 17:23:43;;;;;;;;;;;;;;;;;;6204070;23;19990;-86
2023/03/17 17:26:09;;;;;;;;;;;;;;;;;;6182772;23;20262;-85
2023/03/17 17:28:35;;;;;;;;;;;;;;;;;;6207011;23;19962;-86
2023/03/17 17:31:01;;;;;;;;;;;;;;;;;;6205632;23;19916;-85
2023/03/17 17:33:27;;;;;;;;;;;;;;;;;;6184886;23;19919;-86
2023/03/17 17:35:53;;;;;;;;;;;;;;;;;;6208283;23;20213;-86
2023/03/17 17:38:19;;;;;;;;;;;;;;;;;;6185273;23;19919;-85
2023/03/17 17:40:45;;;;;;;;;;;;;;;;;;6179849;23;20402;-86
2023/03/17 17:43:11;;;;;;;;;;;;;;;;;;6207432;23;19923;-86
2023/03/17 17:45:37;;;;;;;;;;;;;;;;;;6208639;23;19970;-87
2023/03/17 17:48:03;;;;;;;;;;;;;;;;;;6210009;23;20408;-87
2023/03/17 17:50:29;;;;;;;;;;;;;;;;;;6181897;23;19920;-86
2023/03/17 17:53:01;;;;;;;;;;;;;;;;;;6177267;23;19970;-86
2023/03/17 17:55:27;;;;;;;;;;;;;;;;;;6207453;23;20337;-86
2023/03/17 17:57:53;;;;;;;;;;;;;;;;;;6202030;23;19916;-88
2023/03/17 18:00:19;;;;;;;;;;;;;;;;;;6182732;23;19938;-87
2023/03/17 18:02:45;;;;;;;;;;;;;;;;;;6205906;23;20376;-87
2023/03/17 18:05:11;;;;;;;;;;;;;;;;;;6207377;23;19923;-86
2023/03/17 18:07:37;;;;;;;;;;;;;;;;;;6179761;23;20375;-87